sensor_id;sensor_type;location;lat;lon;timestamp;P1;durP1;ratioP1;P2;durP2;ratioP2
22965;SDS011;11649;48.090;9.754;2023-08-21T00:02:04;10.60;;;8.50;;
22965;SDS011;11649;48.090;9.754;2023-08-21T00:04:31;9.85;;;8.85;;
22965;SDS011;11649;48.090;9.754;2023-08-21T00:06:58;9.15;;;8.23;;
22965;SDS011;11649;48.090;9.754;2023-08-21T00:09:25;12.27;;;8.77;;
22965;SDS011;11649;48.090;9.754;2023-08-21T00:11:51;10.18;;;8.85;;
22965;SDS011;11649;48.090;9.754;2023-08-21T00:14:18;9.43;;;8.27;;
22965;SDS011;11649;48.090;9.754;2023-08-21T00:16:45;10.85;;;8.30;;
22965;SDS011;11649;48.090;9.754;2023-08-21T00:19:12;12.35;;;8.70;;
22965;SDS011;11649;48.090;9.754;2023-08-21T00:21:39;11.43;;;8.10;;
22965;SDS011;11649;48.090;9.754;2023-08-21T00:24:06;12.68;;;7.75;;
22965;SDS011;11649;48.090;9.754;2023-08-21T00:26:33;10.05;;;8.27;;
22965;SDS011;11649;48.090;9.754;2023-08-21T00:28:59;9.15;;;8.10;;
22965;SDS011;11649;48.090;9.754;2023-08-21T00:31:26;9.55;;;8.40;;
22965;SDS011;11649;48.090;9.754;2023-08-21T00:33:53;10.85;;;8.10;;
22965;SDS011;11649;48.090;9.754;2023-08-21T00:36:20;9.73;;;8.25;;
22965;SDS011;11649;48.090;9.754;2023-08-21T00:38:46;9.23;;;7.78;;
22965;SDS011;11649;48.090;9.754;2023-08-21T00:41:14;9.10;;;8.02;;
22965;SDS011;11649;48.090;9.754;2023-08-21T00:43:41;9.50;;;8.50;;
22965;SDS011;11649;48.090;9.754;2023-08-21T00:46:07;10.80;;;8.40;;
22965;SDS011;11649;48.090;9.754;2023-08-21T00:48:34;8.95;;;8.15;;
22965;SDS011;11649;48.090;9.754;2023-08-21T00:51:02;9.65;;;8.65;;
22965;SDS011;11649;48.090;9.754;2023-08-21T00:53:30;9.90;;;8.65;;
22965;SDS011;11649;48.090;9.754;2023-08-21T00:55:57;10.55;;;9.35;;
22965;SDS011;11649;48.090;9.754;2023-08-21T00:58:24;11.60;;;9.70;;
22965;SDS011;11649;48.090;9.754;2023-08-21T01:00:51;10.48;;;9.13;;
22965;SDS011;11649;48.090;9.754;2023-08-21T01:03:19;10.73;;;8.15;;
22965;SDS011;11649;48.090;9.754;2023-08-21T01:05:46;8.85;;;7.60;;
22965;SDS011;11649;48.090;9.754;2023-08-21T01:08:21;8.95;;;8.00;;
22965;SDS011;11649;48.090;9.754;2023-08-21T01:11:14;11.27;;;8.95;;
22965;SDS011;11649;48.090;9.754;2023-08-21T01:13:52;10.00;;;9.00;;
22965;SDS011;11649;48.090;9.754;2023-08-21T01:16:29;10.32;;;8.65;;
22965;SDS011;11649;48.090;9.754;2023-08-21T01:18:56;10.95;;;8.35;;
22965;SDS011;11649;48.090;9.754;2023-08-21T01:21:26;11.48;;;8.35;;
22965;SDS011;11649;48.090;9.754;2023-08-21T01:23:53;10.43;;;8.30;;
22965;SDS011;11649;48.090;9.754;2023-08-21T01:26:20;12.43;;;9.23;;
22965;SDS011;11649;48.090;9.754;2023-08-21T01:28:47;9.57;;;8.60;;
22965;SDS011;11649;48.090;9.754;2023-08-21T01:31:33;10.50;;;9.40;;
22965;SDS011;11649;48.090;9.754;2023-08-21T01:34:04;10.60;;;9.48;;
22965;SDS011;11649;48.090;9.754;2023-08-21T01:36:33;10.38;;;9.02;;
22965;SDS011;11649;48.090;9.754;2023-08-21T01:39:01;10.52;;;9.43;;
22965;SDS011;11649;48.090;9.754;2023-08-21T01:41:27;11.05;;;9.18;;
22965;SDS011;11649;48.090;9.754;2023-08-21T01:43:54;10.57;;;9.48;;
22965;SDS011;11649;48.090;9.754;2023-08-21T01:46:21;12.30;;;10.48;;
22965;SDS011;11649;48.090;9.754;2023-08-21T01:48:48;11.73;;;9.70;;
22965;SDS011;11649;48.090;9.754;2023-08-21T01:51:14;11.43;;;9.82;;
22965;SDS011;11649;48.090;9.754;2023-08-21T01:53:41;11.45;;;9.77;;
22965;SDS011;11649;48.090;9.754;2023-08-21T01:56:08;11.73;;;9.88;;
22965;SDS011;11649;48.090;9.754;2023-08-21T01:58:35;10.45;;;9.43;;
22965;SDS011;11649;48.090;9.754;2023-08-21T02:01:01;12.05;;;10.75;;
22965;SDS011;11649;48.090;9.754;2023-08-21T02:03:30;11.20;;;9.80;;
22965;SDS011;11649;48.090;9.754;2023-08-21T02:05:57;11.38;;;10.02;;
22965;SDS011;11649;48.090;9.754;2023-08-21T02:08:27;11.65;;;9.95;;
22965;SDS011;11649;48.090;9.754;2023-08-21T02:10:58;12.10;;;10.63;;
22965;SDS011;11649;48.090;9.754;2023-08-21T02:13:26;13.02;;;10.57;;
22965;SDS011;11649;48.090;9.754;2023-08-21T02:15:52;12.27;;;11.00;;
22965;SDS011;11649;48.090;9.754;2023-08-21T02:18:19;12.30;;;10.23;;
22965;SDS011;11649;48.090;9.754;2023-08-21T02:20:49;10.93;;;9.77;;
22965;SDS011;11649;48.090;9.754;2023-08-21T02:23:16;10.18;;;9.18;;
22965;SDS011;11649;48.090;9.754;2023-08-21T02:25:43;11.85;;;10.18;;
22965;SDS011;11649;48.090;9.754;2023-08-21T02:28:09;11.05;;;9.98;;
22965;SDS011;11649;48.090;9.754;2023-08-21T02:30:39;11.18;;;10.07;;
22965;SDS011;11649;48.090;9.754;2023-08-21T02:33:07;11.65;;;10.30;;
22965;SDS011;11649;48.090;9.754;2023-08-21T02:35:34;14.20;;;10.40;;
22965;SDS011;11649;48.090;9.754;2023-08-21T02:38:00;10.60;;;9.50;;
22965;SDS011;11649;48.090;9.754;2023-08-21T02:40:27;13.50;;;10.68;;
22965;SDS011;11649;48.090;9.754;2023-08-21T02:42:54;11.23;;;9.90;;
22965;SDS011;11649;48.090;9.754;2023-08-21T02:45:21;11.93;;;9.75;;
22965;SDS011;11649;48.090;9.754;2023-08-21T02:47:47;14.43;;;9.38;;
22965;SDS011;11649;48.090;9.754;2023-08-21T02:50:14;11.32;;;9.20;;
22965;SDS011;11649;48.090;9.754;2023-08-21T02:52:41;10.48;;;9.38;;
22965;SDS011;11649;48.090;9.754;2023-08-21T02:55:08;9.75;;;8.77;;
22965;SDS011;11649;48.090;9.754;2023-08-21T02:57:35;11.18;;;9.23;;
22965;SDS011;11649;48.090;9.754;2023-08-21T03:00:02;10.65;;;9.55;;
22965;SDS011;11649;48.090;9.754;2023-08-21T03:02:29;10.20;;;9.20;;
22965;SDS011;11649;48.090;9.754;2023-08-21T03:04:56;9.10;;;8.20;;
22965;SDS011;11649;48.090;9.754;2023-08-21T03:07:22;9.82;;;7.95;;
22965;SDS011;11649;48.090;9.754;2023-08-21T03:09:49;11.00;;;8.60;;
22965;SDS011;11649;48.090;9.754;2023-08-21T03:12:16;11.80;;;9.02;;
22965;SDS011;11649;48.090;9.754;2023-08-21T03:14:43;13.05;;;9.75;;
22965;SDS011;11649;48.090;9.754;2023-08-21T03:17:11;11.48;;;8.88;;
22965;SDS011;11649;48.090;9.754;2023-08-21T03:19:38;11.80;;;9.35;;
22965;SDS011;11649;48.090;9.754;2023-08-21T03:22:05;10.15;;;9.07;;
22965;SDS011;11649;48.090;9.754;2023-08-21T03:24:31;10.00;;;8.95;;
22965;SDS011;11649;48.090;9.754;2023-08-21T03:26:58;16.05;;;8.57;;
22965;SDS011;11649;48.090;9.754;2023-08-21T03:29:25;9.80;;;8.80;;
22965;SDS011;11649;48.090;9.754;2023-08-21T03:31:52;9.98;;;8.98;;
22965;SDS011;11649;48.090;9.754;2023-08-21T03:34:23;9.50;;;8.60;;
22965;SDS011;11649;48.090;9.754;2023-08-21T03:36:50;10.73;;;9.30;;
22965;SDS011;11649;48.090;9.754;2023-08-21T03:39:16;11.10;;;9.98;;
22965;SDS011;11649;48.090;9.754;2023-08-21T03:41:43;10.98;;;9.88;;
22965;SDS011;11649;48.090;9.754;2023-08-21T03:44:10;9.93;;;8.93;;
22965;SDS011;11649;48.090;9.754;2023-08-21T03:46:37;10.98;;;9.88;;
22965;SDS011;11649;48.090;9.754;2023-08-21T03:49:04;11.02;;;9.77;;
22965;SDS011;11649;48.090;9.754;2023-08-21T03:51:31;12.15;;;9.88;;
22965;SDS011;11649;48.090;9.754;2023-08-21T03:53:58;12.88;;;10.10;;
22965;SDS011;11649;48.090;9.754;2023-08-21T03:56:25;10.52;;;9.43;;
22965;SDS011;11649;48.090;9.754;2023-08-21T03:58:52;14.25;;;9.25;;
22965;SDS011;11649;48.090;9.754;2023-08-21T04:01:18;11.48;;;9.13;;
22965;SDS011;11649;48.090;9.754;2023-08-21T04:03:45;9.75;;;8.85;;
22965;SDS011;11649;48.090;9.754;2023-08-21T04:06:12;10.52;;;8.98;;
22965;SDS011;11649;48.090;9.754;2023-08-21T04:08:39;10.63;;;9.10;;
22965;SDS011;11649;48.090;9.754;2023-08-21T04:11:06;12.02;;;9.55;;
22965;SDS011;11649;48.090;9.754;2023-08-21T04:13:33;10.10;;;8.95;;
22965;SDS011;11649;48.090;9.754;2023-08-21T04:15:59;9.68;;;8.68;;
22965;SDS011;11649;48.090;9.754;2023-08-21T04:18:26;10.40;;;8.63;;
22965;SDS011;11649;48.090;9.754;2023-08-21T04:21:07;11.27;;;9.25;;
22965;SDS011;11649;48.090;9.754;2023-08-21T04:23:34;9.40;;;8.50;;
22965;SDS011;11649;48.090;9.754;2023-08-21T04:26:01;9.13;;;8.20;;
22965;SDS011;11649;48.090;9.754;2023-08-21T04:28:32;8.63;;;7.82;;
22965;SDS011;11649;48.090;9.754;2023-08-21T04:30:59;10.65;;;9.05;;
22965;SDS011;11649;48.090;9.754;2023-08-21T04:33:27;10.05;;;7.90;;
22965;SDS011;11649;48.090;9.754;2023-08-21T04:35:55;11.88;;;8.70;;
22965;SDS011;11649;48.090;9.754;2023-08-21T04:38:22;9.90;;;8.65;;
22965;SDS011;11649;48.090;9.754;2023-08-21T04:40:49;9.55;;;8.55;;
22965;SDS011;11649;48.090;9.754;2023-08-21T04:43:15;10.13;;;9.05;;
22965;SDS011;11649;48.090;9.754;2023-08-21T04:45:52;9.70;;;8.50;;
22965;SDS011;11649;48.090;9.754;2023-08-21T04:48:20;9.90;;;8.88;;
22965;SDS011;11649;48.090;9.754;2023-08-21T04:50:47;10.70;;;9.60;;
22965;SDS011;11649;48.090;9.754;2023-08-21T04:53:14;12.18;;;9.70;;
22965;SDS011;11649;48.090;9.754;2023-08-21T04:55:41;9.73;;;8.63;;
22965;SDS011;11649;48.090;9.754;2023-08-21T04:58:08;9.00;;;7.75;;
22965;SDS011;11649;48.090;9.754;2023-08-21T05:00:35;9.90;;;8.32;;
22965;SDS011;11649;48.090;9.754;2023-08-21T05:03:03;9.35;;;8.15;;
22965;SDS011;11649;48.090;9.754;2023-08-21T05:05:30;9.07;;;8.20;;
22965;SDS011;11649;48.090;9.754;2023-08-21T05:07:57;8.68;;;7.78;;
22965;SDS011;11649;48.090;9.754;2023-08-21T05:10:23;9.00;;;8.10;;
22965;SDS011;11649;48.090;9.754;2023-08-21T05:12:50;10.60;;;8.00;;
22965;SDS011;11649;48.090;9.754;2023-08-21T05:15:17;10.98;;;8.60;;
22965;SDS011;11649;48.090;9.754;2023-08-21T05:17:43;9.27;;;8.30;;
22965;SDS011;11649;48.090;9.754;2023-08-21T05:20:10;9.40;;;8.50;;
22965;SDS011;11649;48.090;9.754;2023-08-21T05:22:40;8.93;;;8.02;;
22965;SDS011;11649;48.090;9.754;2023-08-21T05:25:07;9.40;;;8.50;;
22965;SDS011;11649;48.090;9.754;2023-08-21T05:27:34;8.57;;;7.72;;
22965;SDS011;11649;48.090;9.754;2023-08-21T05:30:01;9.70;;;8.70;;
22965;SDS011;11649;48.090;9.754;2023-08-21T05:32:29;10.63;;;8.63;;
22965;SDS011;11649;48.090;9.754;2023-08-21T05:34:56;13.00;;;9.15;;
22965;SDS011;11649;48.090;9.754;2023-08-21T05:37:23;9.93;;;8.98;;
22965;SDS011;11649;48.090;9.754;2023-08-21T05:39:49;11.85;;;9.50;;
22965;SDS011;11649;48.090;9.754;2023-08-21T05:42:16;10.70;;;9.60;;
22965;SDS011;11649;48.090;9.754;2023-08-21T05:44:43;11.95;;;9.68;;
22965;SDS011;11649;48.090;9.754;2023-08-21T05:47:10;12.00;;;10.07;;
22965;SDS011;11649;48.090;9.754;2023-08-21T05:49:37;12.50;;;10.10;;
22965;SDS011;11649;48.090;9.754;2023-08-21T05:52:04;11.35;;;10.00;;
22965;SDS011;11649;48.090;9.754;2023-08-21T05:54:31;15.43;;;11.43;;
22965;SDS011;11649;48.090;9.754;2023-08-21T05:56:58;11.80;;;10.60;;
22965;SDS011;11649;48.090;9.754;2023-08-21T05:59:31;12.10;;;10.77;;
22965;SDS011;11649;48.090;9.754;2023-08-21T06:01:58;12.43;;;11.10;;
22965;SDS011;11649;48.090;9.754;2023-08-21T06:04:25;16.65;;;12.93;;
22965;SDS011;11649;48.090;9.754;2023-08-21T06:06:54;15.95;;;12.68;;
22965;SDS011;11649;48.090;9.754;2023-08-21T06:09:21;13.57;;;12.05;;
22965;SDS011;11649;48.090;9.754;2023-08-21T06:11:48;15.85;;;12.80;;
22965;SDS011;11649;48.090;9.754;2023-08-21T06:14:15;13.52;;;12.13;;
22965;SDS011;11649;48.090;9.754;2023-08-21T06:16:41;13.18;;;11.05;;
22965;SDS011;11649;48.090;9.754;2023-08-21T06:19:11;14.57;;;12.40;;
22965;SDS011;11649;48.090;9.754;2023-08-21T06:21:38;15.38;;;12.10;;
22965;SDS011;11649;48.090;9.754;2023-08-21T06:24:05;13.45;;;11.85;;
22965;SDS011;11649;48.090;9.754;2023-08-21T06:26:32;13.07;;;11.68;;
22965;SDS011;11649;48.090;9.754;2023-08-21T06:28:58;15.35;;;11.90;;
22965;SDS011;11649;48.090;9.754;2023-08-21T06:31:25;18.48;;;11.68;;
22965;SDS011;11649;48.090;9.754;2023-08-21T06:33:52;14.70;;;10.70;;
22965;SDS011;11649;48.090;9.754;2023-08-21T06:36:19;12.10;;;10.80;;
22965;SDS011;11649;48.090;9.754;2023-08-21T06:38:46;14.88;;;10.50;;
22965;SDS011;11649;48.090;9.754;2023-08-21T06:41:12;13.05;;;10.82;;
22965;SDS011;11649;48.090;9.754;2023-08-21T06:43:39;12.35;;;11.10;;
22965;SDS011;11649;48.090;9.754;2023-08-21T06:46:10;15.15;;;11.85;;
22965;SDS011;11649;48.090;9.754;2023-08-21T06:48:38;15.32;;;12.32;;
22965;SDS011;11649;48.090;9.754;2023-08-21T06:51:07;13.45;;;11.70;;
22965;SDS011;11649;48.090;9.754;2023-08-21T06:53:34;13.63;;;12.05;;
22965;SDS011;11649;48.090;9.754;2023-08-21T06:56:01;18.05;;;11.95;;
22965;SDS011;11649;48.090;9.754;2023-08-21T06:58:27;11.20;;;10.00;;
22965;SDS011;11649;48.090;9.754;2023-08-21T07:00:55;16.23;;;11.98;;
22965;SDS011;11649;48.090;9.754;2023-08-21T07:03:22;15.48;;;11.90;;
22965;SDS011;11649;48.090;9.754;2023-08-21T07:05:56;16.08;;;11.15;;
22965;SDS011;11649;48.090;9.754;2023-08-21T07:08:23;12.35;;;10.13;;
22965;SDS011;11649;48.090;9.754;2023-08-21T07:10:51;15.38;;;10.60;;
22965;SDS011;11649;48.090;9.754;2023-08-21T07:13:19;12.30;;;9.93;;
22965;SDS011;11649;48.090;9.754;2023-08-21T07:15:46;10.75;;;9.65;;
22965;SDS011;11649;48.090;9.754;2023-08-21T07:18:13;10.10;;;9.15;;
22965;SDS011;11649;48.090;9.754;2023-08-21T07:20:40;11.13;;;9.98;;
22965;SDS011;11649;48.090;9.754;2023-08-21T07:23:07;13.75;;;11.18;;
22965;SDS011;11649;48.090;9.754;2023-08-21T07:25:34;12.88;;;10.30;;
22965;SDS011;11649;48.090;9.754;2023-08-21T07:28:01;15.00;;;10.90;;
22965;SDS011;11649;48.090;9.754;2023-08-21T07:30:28;12.00;;;9.18;;
22965;SDS011;11649;48.090;9.754;2023-08-21T07:32:54;11.55;;;9.85;;
22965;SDS011;11649;48.090;9.754;2023-08-21T07:35:21;13.32;;;11.15;;
22965;SDS011;11649;48.090;9.754;2023-08-21T07:37:48;16.55;;;10.27;;
22965;SDS011;11649;48.090;9.754;2023-08-21T07:40:15;10.98;;;9.77;;
22965;SDS011;11649;48.090;9.754;2023-08-21T07:42:42;11.60;;;9.73;;
22965;SDS011;11649;48.090;9.754;2023-08-21T07:45:09;11.02;;;9.63;;
22965;SDS011;11649;48.090;9.754;2023-08-21T07:47:36;13.35;;;10.60;;
22965;SDS011;11649;48.090;9.754;2023-08-21T07:50:04;16.60;;;11.98;;
22965;SDS011;11649;48.090;9.754;2023-08-21T07:52:32;12.75;;;10.00;;
22965;SDS011;11649;48.090;9.754;2023-08-21T07:55:00;11.55;;;10.38;;
22965;SDS011;11649;48.090;9.754;2023-08-21T07:57:29;11.55;;;9.88;;
22965;SDS011;11649;48.090;9.754;2023-08-21T07:59:56;12.35;;;10.35;;
22965;SDS011;11649;48.090;9.754;2023-08-21T08:02:23;13.00;;;9.73;;
22965;SDS011;11649;48.090;9.754;2023-08-21T08:04:50;14.45;;;9.45;;
22965;SDS011;11649;48.090;9.754;2023-08-21T08:07:17;15.05;;;11.68;;
22965;SDS011;11649;48.090;9.754;2023-08-21T08:09:43;12.23;;;9.30;;
22965;SDS011;11649;48.090;9.754;2023-08-21T08:12:10;17.23;;;12.50;;
22965;SDS011;11649;48.090;9.754;2023-08-21T08:14:37;18.35;;;11.48;;
22965;SDS011;11649;48.090;9.754;2023-08-21T08:17:04;17.10;;;10.98;;
22965;SDS011;11649;48.090;9.754;2023-08-21T08:19:31;15.35;;;10.93;;
22965;SDS011;11649;48.090;9.754;2023-08-21T08:21:57;13.15;;;9.93;;
22965;SDS011;11649;48.090;9.754;2023-08-21T08:24:24;12.52;;;10.52;;
22965;SDS011;11649;48.090;9.754;2023-08-21T08:26:51;13.48;;;10.60;;
22965;SDS011;11649;48.090;9.754;2023-08-21T08:29:17;12.18;;;10.05;;
22965;SDS011;11649;48.090;9.754;2023-08-21T08:31:44;11.77;;;9.30;;
22965;SDS011;11649;48.090;9.754;2023-08-21T08:34:11;11.10;;;9.75;;
22965;SDS011;11649;48.090;9.754;2023-08-21T08:36:38;11.80;;;8.80;;
22965;SDS011;11649;48.090;9.754;2023-08-21T08:39:38;11.60;;;9.68;;
22965;SDS011;11649;48.090;9.754;2023-08-21T08:42:05;12.23;;;9.25;;
22965;SDS011;11649;48.090;9.754;2023-08-21T08:44:34;15.35;;;10.65;;
22965;SDS011;11649;48.090;9.754;2023-08-21T08:47:02;13.10;;;9.40;;
22965;SDS011;11649;48.090;9.754;2023-08-21T08:49:30;12.73;;;10.05;;
22965;SDS011;11649;48.090;9.754;2023-08-21T08:51:57;11.27;;;9.60;;
22965;SDS011;11649;48.090;9.754;2023-08-21T08:54:25;13.48;;;9.27;;
22965;SDS011;11649;48.090;9.754;2023-08-21T08:56:53;11.02;;;9.23;;
22965;SDS011;11649;48.090;9.754;2023-08-21T08:59:20;13.05;;;9.32;;
22965;SDS011;11649;48.090;9.754;2023-08-21T09:01:47;14.25;;;9.68;;
22965;SDS011;11649;48.090;9.754;2023-08-21T09:04:14;9.70;;;8.70;;
22965;SDS011;11649;48.090;9.754;2023-08-21T09:06:42;15.80;;;10.02;;
22965;SDS011;11649;48.090;9.754;2023-08-21T09:09:11;12.23;;;9.30;;
22965;SDS011;11649;48.090;9.754;2023-08-21T09:11:42;13.18;;;8.63;;
22965;SDS011;11649;48.090;9.754;2023-08-21T09:14:10;14.95;;;9.73;;
22965;SDS011;11649;48.090;9.754;2023-08-21T09:16:38;11.48;;;8.18;;
22965;SDS011;11649;48.090;9.754;2023-08-21T09:19:26;9.15;;;8.25;;
22965;SDS011;11649;48.090;9.754;2023-08-21T09:21:53;12.38;;;8.98;;
22965;SDS011;11649;48.090;9.754;2023-08-21T09:24:20;9.57;;;8.20;;
22965;SDS011;11649;48.090;9.754;2023-08-21T09:26:47;12.40;;;8.50;;
22965;SDS011;11649;48.090;9.754;2023-08-21T09:29:14;9.88;;;8.05;;
22965;SDS011;11649;48.090;9.754;2023-08-21T09:31:41;12.38;;;8.50;;
22965;SDS011;11649;48.090;9.754;2023-08-21T09:34:10;11.80;;;8.65;;
22965;SDS011;11649;48.090;9.754;2023-08-21T09:36:37;9.70;;;7.43;;
22965;SDS011;11649;48.090;9.754;2023-08-21T09:39:05;8.82;;;7.30;;
22965;SDS011;11649;48.090;9.754;2023-08-21T09:41:33;10.50;;;7.72;;
22965;SDS011;11649;48.090;9.754;2023-08-21T09:44:00;10.60;;;6.95;;
22965;SDS011;11649;48.090;9.754;2023-08-21T09:46:27;9.07;;;7.22;;
22965;SDS011;11649;48.090;9.754;2023-08-21T09:48:55;8.23;;;6.72;;
22965;SDS011;11649;48.090;9.754;2023-08-21T09:51:22;8.40;;;7.00;;
22965;SDS011;11649;48.090;9.754;2023-08-21T09:53:49;8.80;;;7.90;;
22965;SDS011;11649;48.090;9.754;2023-08-21T09:56:17;10.63;;;7.68;;
22965;SDS011;11649;48.090;9.754;2023-08-21T09:58:46;9.30;;;8.00;;
22965;SDS011;11649;48.090;9.754;2023-08-21T10:01:15;9.05;;;7.55;;
22965;SDS011;11649;48.090;9.754;2023-08-21T10:03:43;7.55;;;6.75;;
22965;SDS011;11649;48.090;9.754;2023-08-21T10:06:17;11.85;;;7.22;;
22965;SDS011;11649;48.090;9.754;2023-08-21T10:08:48;10.63;;;7.35;;
22965;SDS011;11649;48.090;9.754;2023-08-21T10:11:19;9.32;;;7.13;;
22965;SDS011;11649;48.090;9.754;2023-08-21T10:13:47;7.40;;;6.60;;
22965;SDS011;11649;48.090;9.754;2023-08-21T10:16:18;7.85;;;6.38;;
22965;SDS011;11649;48.090;9.754;2023-08-21T10:18:47;6.90;;;6.18;;
22965;SDS011;11649;48.090;9.754;2023-08-21T10:21:15;12.30;;;6.32;;
22965;SDS011;11649;48.090;9.754;2023-08-21T10:23:46;8.23;;;6.20;;
22965;SDS011;11649;48.090;9.754;2023-08-21T10:26:14;7.90;;;6.07;;
22965;SDS011;11649;48.090;9.754;2023-08-21T10:34:10;6.90;;;5.20;;
22965;SDS011;11649;48.090;9.754;2023-08-21T10:39:15;9.82;;;5.93;;
22965;SDS011;11649;48.090;9.754;2023-08-21T10:42:36;7.82;;;5.60;;
22965;SDS011;11649;48.090;9.754;2023-08-21T10:47:15;6.07;;;5.47;;
22965;SDS011;11649;48.090;9.754;2023-08-21T10:49:46;8.75;;;5.40;;
22965;SDS011;11649;48.090;9.754;2023-08-21T10:52:20;6.80;;;5.60;;
22965;SDS011;11649;48.090;9.754;2023-08-21T10:54:50;6.57;;;5.38;;
22965;SDS011;11649;48.090;9.754;2023-08-21T10:57:19;8.07;;;5.57;;
22965;SDS011;11649;48.090;9.754;2023-08-21T11:02:24;6.32;;;5.18;;
22965;SDS011;11649;48.090;9.754;2023-08-21T11:04:52;6.60;;;5.07;;
22965;SDS011;11649;48.090;9.754;2023-08-21T11:07:19;7.60;;;5.25;;
22965;SDS011;11649;48.090;9.754;2023-08-21T11:09:47;9.55;;;5.50;;
22965;SDS011;11649;48.090;9.754;2023-08-21T11:12:17;5.88;;;5.13;;
22965;SDS011;11649;48.090;9.754;2023-08-21T11:14:45;6.30;;;5.55;;
22965;SDS011;11649;48.090;9.754;2023-08-21T11:17:12;7.72;;;6.00;;
22965;SDS011;11649;48.090;9.754;2023-08-21T11:19:40;8.45;;;5.70;;
22965;SDS011;11649;48.090;9.754;2023-08-21T11:22:07;8.95;;;5.53;;
22965;SDS011;11649;48.090;9.754;2023-08-21T11:27:09;6.10;;;5.50;;
22965;SDS011;11649;48.090;9.754;2023-08-21T11:29:37;6.18;;;5.32;;
22965;SDS011;11649;48.090;9.754;2023-08-21T11:32:09;5.22;;;4.80;;
22965;SDS011;11649;48.090;9.754;2023-08-21T11:34:37;7.00;;;5.45;;
22965;SDS011;11649;48.090;9.754;2023-08-21T11:37:04;7.25;;;5.63;;
22965;SDS011;11649;48.090;9.754;2023-08-21T11:40:06;8.32;;;5.47;;
22965;SDS011;11649;48.090;9.754;2023-08-21T11:42:29;7.88;;;5.28;;
22965;SDS011;11649;48.090;9.754;2023-08-21T11:44:58;8.15;;;5.38;;
22965;SDS011;11649;48.090;9.754;2023-08-21T11:47:33;8.77;;;5.32;;
22965;SDS011;11649;48.090;9.754;2023-08-21T11:50:04;7.30;;;5.63;;
22965;SDS011;11649;48.090;9.754;2023-08-21T11:52:32;6.45;;;5.32;;
22965;SDS011;11649;48.090;9.754;2023-08-21T11:55:02;9.18;;;5.70;;
22965;SDS011;11649;48.090;9.754;2023-08-21T11:57:33;10.32;;;5.78;;
22965;SDS011;11649;48.090;9.754;2023-08-21T12:00:00;9.57;;;7.05;;
22965;SDS011;11649;48.090;9.754;2023-08-21T12:02:27;15.32;;;7.70;;
22965;SDS011;11649;48.090;9.754;2023-08-21T12:05:00;8.90;;;5.55;;
22965;SDS011;11649;48.090;9.754;2023-08-21T12:07:29;8.73;;;5.70;;
22965;SDS011;11649;48.090;9.754;2023-08-21T12:09:56;7.07;;;5.65;;
22965;SDS011;11649;48.090;9.754;2023-08-21T12:12:23;7.57;;;5.47;;
22965;SDS011;11649;48.090;9.754;2023-08-21T12:14:50;6.03;;;5.28;;
22965;SDS011;11649;48.090;9.754;2023-08-21T12:17:17;7.30;;;5.18;;
22965;SDS011;11649;48.090;9.754;2023-08-21T12:19:43;7.97;;;5.70;;
22965;SDS011;11649;48.090;9.754;2023-08-21T12:22:10;6.20;;;5.40;;
22965;SDS011;11649;48.090;9.754;2023-08-21T12:24:38;8.13;;;5.70;;
22965;SDS011;11649;48.090;9.754;2023-08-21T12:27:06;7.07;;;5.40;;
22965;SDS011;11649;48.090;9.754;2023-08-21T12:29:33;12.18;;;5.82;;
22965;SDS011;11649;48.090;9.754;2023-08-21T12:32:00;7.05;;;5.63;;
22965;SDS011;11649;48.090;9.754;2023-08-21T12:34:29;8.18;;;5.97;;
22965;SDS011;11649;48.090;9.754;2023-08-21T12:36:56;9.35;;;5.60;;
22965;SDS011;11649;48.090;9.754;2023-08-21T12:39:22;6.35;;;5.72;;
22965;SDS011;11649;48.090;9.754;2023-08-21T12:41:49;12.93;;;6.00;;
22965;SDS011;11649;48.090;9.754;2023-08-21T12:44:16;7.72;;;6.00;;
22965;SDS011;11649;48.090;9.754;2023-08-21T12:46:43;8.60;;;5.85;;
22965;SDS011;11649;48.090;9.754;2023-08-21T12:49:11;10.43;;;6.13;;
22965;SDS011;11649;48.090;9.754;2023-08-21T12:51:38;6.75;;;5.43;;
22965;SDS011;11649;48.090;9.754;2023-08-21T12:54:06;9.32;;;5.85;;
22965;SDS011;11649;48.090;9.754;2023-08-21T12:56:35;11.02;;;5.68;;
22965;SDS011;11649;48.090;9.754;2023-08-21T13:06:37;10.73;;;5.53;;
22965;SDS011;11649;48.090;9.754;2023-08-21T13:09:04;6.60;;;5.00;;
22965;SDS011;11649;48.090;9.754;2023-08-21T13:11:32;6.25;;;4.63;;
22965;SDS011;11649;48.090;9.754;2023-08-21T13:14:00;8.65;;;4.70;;
22965;SDS011;11649;48.090;9.754;2023-08-21T13:16:27;6.38;;;4.30;;
22965;SDS011;11649;48.090;9.754;2023-08-21T13:18:54;6.78;;;4.45;;
22965;SDS011;11649;48.090;9.754;2023-08-21T13:21:20;7.65;;;4.72;;
22965;SDS011;11649;48.090;9.754;2023-08-21T13:23:48;9.80;;;4.97;;
22965;SDS011;11649;48.090;9.754;2023-08-21T13:26:15;7.32;;;4.80;;
22965;SDS011;11649;48.090;9.754;2023-08-21T13:28:42;7.75;;;5.22;;
22965;SDS011;11649;48.090;9.754;2023-08-21T13:31:09;8.20;;;5.35;;
22965;SDS011;11649;48.090;9.754;2023-08-21T13:33:44;8.35;;;4.78;;
22965;SDS011;11649;48.090;9.754;2023-08-21T13:36:17;8.57;;;4.70;;
22965;SDS011;11649;48.090;9.754;2023-08-21T13:38:50;9.20;;;4.77;;
22965;SDS011;11649;48.090;9.754;2023-08-21T13:41:17;12.52;;;4.90;;
22965;SDS011;11649;48.090;9.754;2023-08-21T13:43:44;8.23;;;4.72;;
22965;SDS011;11649;48.090;9.754;2023-08-21T13:46:12;6.95;;;4.28;;
22965;SDS011;11649;48.090;9.754;2023-08-21T13:48:39;11.00;;;4.70;;
22965;SDS011;11649;48.090;9.754;2023-08-21T13:51:06;6.32;;;4.25;;
22965;SDS011;11649;48.090;9.754;2023-08-21T13:53:32;11.13;;;4.32;;
22965;SDS011;11649;48.090;9.754;2023-08-21T13:55:59;6.38;;;4.47;;
22965;SDS011;11649;48.090;9.754;2023-08-21T13:58:26;8.20;;;4.60;;
22965;SDS011;11649;48.090;9.754;2023-08-21T14:00:53;5.72;;;4.13;;
22965;SDS011;11649;48.090;9.754;2023-08-21T14:03:22;6.85;;;4.10;;
22965;SDS011;11649;48.090;9.754;2023-08-21T14:05:48;4.78;;;3.80;;
22965;SDS011;11649;48.090;9.754;2023-08-21T14:08:15;9.25;;;4.35;;
22965;SDS011;11649;48.090;9.754;2023-08-21T14:10:42;7.28;;;4.13;;
22965;SDS011;11649;48.090;9.754;2023-08-21T14:13:09;6.45;;;4.20;;
22965;SDS011;11649;48.090;9.754;2023-08-21T14:15:36;7.15;;;4.35;;
22965;SDS011;11649;48.090;9.754;2023-08-21T14:18:02;6.75;;;4.00;;
22965;SDS011;11649;48.090;9.754;2023-08-21T14:20:31;6.80;;;4.03;;
22965;SDS011;11649;48.090;9.754;2023-08-21T14:22:58;8.63;;;3.95;;
22965;SDS011;11649;48.090;9.754;2023-08-21T14:25:24;9.18;;;4.15;;
22965;SDS011;11649;48.090;9.754;2023-08-21T14:27:51;9.50;;;4.40;;
22965;SDS011;11649;48.090;9.754;2023-08-21T14:30:19;12.65;;;4.30;;
22965;SDS011;11649;48.090;9.754;2023-08-21T14:32:46;9.57;;;4.47;;
22965;SDS011;11649;48.090;9.754;2023-08-21T14:35:13;6.60;;;4.20;;
22965;SDS011;11649;48.090;9.754;2023-08-21T14:37:40;10.55;;;4.20;;
22965;SDS011;11649;48.090;9.754;2023-08-21T14:40:07;9.65;;;4.25;;
22965;SDS011;11649;48.090;9.754;2023-08-21T14:42:37;8.07;;;4.47;;
22965;SDS011;11649;48.090;9.754;2023-08-21T14:45:05;7.40;;;4.70;;
22965;SDS011;11649;48.090;9.754;2023-08-21T14:47:32;4.88;;;4.10;;
22965;SDS011;11649;48.090;9.754;2023-08-21T14:49:59;8.05;;;4.60;;
22965;SDS011;11649;48.090;9.754;2023-08-21T14:52:26;7.28;;;4.28;;
22965;SDS011;11649;48.090;9.754;2023-08-21T14:54:53;11.20;;;4.30;;
22965;SDS011;11649;48.090;9.754;2023-08-21T14:57:20;9.75;;;4.70;;
22965;SDS011;11649;48.090;9.754;2023-08-21T14:59:46;6.68;;;4.30;;
22965;SDS011;11649;48.090;9.754;2023-08-21T15:02:13;6.68;;;4.50;;
22965;SDS011;11649;48.090;9.754;2023-08-21T15:04:40;9.13;;;4.75;;
22965;SDS011;11649;48.090;9.754;2023-08-21T15:07:07;7.47;;;4.45;;